createdAt,value
2022-09-26T00:01:21.138Z,10.99
2022-09-26T00:03:54.165Z,11.03
2022-09-26T00:06:21.856Z,11.08
2022-09-26T00:08:50.164Z,11.11
2022-09-26T00:11:23.311Z,11.13
2022-09-26T00:13:56.391Z,11.16
2022-09-26T00:16:24.337Z,11.21
2022-09-26T00:18:52.949Z,11.23
2022-09-26T00:21:20.732Z,11.24
2022-09-26T00:23:48.279Z,11.28
2022-09-26T00:26:16.518Z,11.31
2022-09-26T00:28:43.361Z,11.31
2022-09-26T00:31:12.882Z,11.29
2022-09-26T00:33:39.750Z,11.27
2022-09-26T00:36:07.114Z,11.27
2022-09-26T00:38:34.173Z,11.26
2022-09-26T00:41:00.990Z,11.26
2022-09-26T00:43:34.665Z,11.27
2022-09-26T00:46:24.361Z,11.27
2022-09-26T00:49:06.036Z,11.26
2022-09-26T00:51:35.069Z,11.26
2022-09-26T00:54:02.983Z,11.24
2022-09-26T00:56:34.116Z,11.26
2022-09-26T00:59:14.277Z,11.27
2022-09-26T01:01:41.701Z,11.28
2022-09-26T01:04:09.411Z,11.29
2022-09-26T01:06:36.501Z,11.31
2022-09-26T01:09:09.006Z,11.30
2022-09-26T01:11:37.322Z,11.30
2022-09-26T01:14:05.458Z,11.30
2022-09-26T01:16:32.479Z,11.31
2022-09-26T01:18:59.020Z,11.29
2022-09-26T01:21:54.234Z,11.31
2022-09-26T01:24:37.017Z,11.30
2022-09-26T01:27:46.476Z,11.29
2022-09-26T01:30:17.987Z,11.28
2022-09-26T01:33:12.516Z,11.28
2022-09-26T01:36:16.710Z,11.26
2022-09-26T01:39:12.135Z,11.25
2022-09-26T01:41:59.317Z,11.24
2022-09-26T01:44:38.913Z,11.23
2022-09-26T01:47:08.238Z,11.20
2022-09-26T01:49:40.194Z,11.21
2022-09-26T01:52:29.250Z,11.21
2022-09-26T01:55:04.788Z,11.22
2022-09-26T01:57:43.424Z,11.19
2022-09-26T02:00:13.856Z,11.19
2022-09-26T02:02:45.325Z,11.17
2022-09-26T02:05:29.858Z,11.17
2022-09-26T02:08:03.633Z,11.19
2022-09-26T02:10:39.346Z,11.17
2022-09-26T02:13:17.609Z,11.18
2022-09-26T02:15:51.529Z,11.19
2022-09-26T02:18:27.075Z,11.19
2022-09-26T02:21:01.035Z,11.16
2022-09-26T02:23:27.538Z,11.15
2022-09-26T02:25:54.279Z,11.14
2022-09-26T02:28:22.110Z,11.12
2022-09-26T02:30:50.399Z,11.08
2022-09-26T02:33:16.866Z,11.08
2022-09-26T02:35:55.687Z,11.08
2022-09-26T02:38:29.108Z,11.08
2022-09-26T02:41:43.673Z,11.06
2022-09-26T02:44:29.045Z,11.05
2022-09-26T02:47:29.146Z,11.04
2022-09-26T02:50:08.305Z,11.02
2022-09-26T02:53:08.765Z,11.00
2022-09-26T02:55:45.152Z,10.97
2022-09-26T02:59:01.861Z,10.96
2022-09-26T03:01:43.918Z,10.96
2022-09-26T03:04:48.008Z,10.93
2022-09-26T03:07:25.906Z,10.91
2022-09-26T03:09:53.141Z,10.92
2022-09-26T03:12:20.676Z,10.88
2022-09-26T03:14:49.402Z,10.87
2022-09-26T03:17:18.780Z,10.88
2022-09-26T03:19:59.624Z,10.87
2022-09-26T03:22:26.337Z,10.87
2022-09-26T03:24:52.667Z,10.86
2022-09-26T03:27:19.958Z,10.80
2022-09-26T03:29:46.448Z,10.81
2022-09-26T03:32:12.924Z,10.80
2022-09-26T03:34:39.863Z,10.80
2022-09-26T03:37:06.787Z,10.81
2022-09-26T03:39:33.140Z,10.79
2022-09-26T03:41:59.496Z,10.79
2022-09-26T03:44:25.876Z,10.78
2022-09-26T03:46:52.268Z,10.78
2022-09-26T03:49:18.642Z,10.78
2022-09-26T03:51:45.870Z,10.78
2022-09-26T03:54:13.100Z,10.77
2022-09-26T03:56:39.508Z,10.78
2022-09-26T03:59:05.913Z,10.76
2022-09-26T04:01:32.328Z,10.76
2022-09-26T04:03:58.759Z,10.74
2022-09-26T04:06:25.200Z,10.73
2022-09-26T04:08:53.190Z,10.74
2022-09-26T04:11:22.968Z,10.73
2022-09-26T04:13:52.375Z,10.72
2022-09-26T04:16:22.449Z,10.71
2022-09-26T04:18:49.288Z,10.71
2022-09-26T04:21:16.023Z,10.70
2022-09-26T04:23:43.910Z,10.70
2022-09-26T04:26:22.790Z,10.69
2022-09-26T04:28:54.785Z,10.71
2022-09-26T04:31:21.875Z,10.70
2022-09-26T04:33:49.092Z,10.70
2022-09-26T04:36:16.549Z,10.70
2022-09-26T04:38:43.009Z,10.69
2022-09-26T04:41:23.173Z,10.69
2022-09-26T04:43:49.537Z,10.69
2022-09-26T04:46:24.551Z,10.70
2022-09-26T04:48:55.318Z,10.70
2022-09-26T04:51:23.924Z,10.69
2022-09-26T04:53:51.190Z,10.69
2022-09-26T04:56:20.654Z,10.69
2022-09-26T04:58:48.041Z,10.70
2022-09-26T05:01:16.780Z,10.68
2022-09-26T05:03:44.159Z,10.68
2022-09-26T05:06:11.678Z,10.66
2022-09-26T05:08:46.326Z,10.67
2022-09-26T05:11:13.901Z,10.65
2022-09-26T05:13:40.237Z,10.64
2022-09-26T05:16:08.763Z,10.59
2022-09-26T05:18:36.028Z,10.59
2022-09-26T05:21:03.613Z,10.59
2022-09-26T05:23:48.774Z,10.59
2022-09-26T05:26:37.669Z,10.55
2022-09-26T05:29:08.726Z,10.55
2022-09-26T05:31:37.742Z,10.55
2022-09-26T05:34:06.008Z,10.54
2022-09-26T05:36:32.341Z,10.53
2022-09-26T05:38:58.884Z,10.54
2022-09-26T05:41:29.377Z,10.54
2022-09-26T05:43:56.470Z,10.54
2022-09-26T05:46:23.796Z,10.53
2022-09-26T05:48:50.502Z,10.52
2022-09-26T05:51:21.003Z,10.54
2022-09-26T05:53:49.360Z,10.54
2022-09-26T05:56:19.646Z,10.55
2022-09-26T05:58:46.721Z,10.55
2022-09-26T06:01:15.262Z,10.54
2022-09-26T06:03:43.648Z,10.55
2022-09-26T06:06:15.578Z,10.53
2022-09-26T06:08:43.148Z,10.53
2022-09-26T06:11:13.724Z,10.53
2022-09-26T06:13:45.760Z,10.53
2022-09-26T06:16:15.043Z,10.53
2022-09-26T06:18:44.155Z,10.53
2022-09-26T06:21:12.172Z,10.55
2022-09-26T06:23:38.765Z,10.57
2022-09-26T06:26:08.398Z,10.58
2022-09-26T06:28:36.569Z,10.60
2022-09-26T06:31:10.756Z,10.61
2022-09-26T06:33:37.125Z,10.61
2022-09-26T06:36:05.978Z,10.63
2022-09-26T06:38:32.801Z,10.68
2022-09-26T06:40:59.185Z,10.70
2022-09-26T06:43:25.700Z,10.71
2022-09-26T06:45:53.240Z,10.73
2022-09-26T06:48:24.515Z,10.74
2022-09-26T06:50:52.966Z,10.75
2022-09-26T06:53:19.484Z,10.77
2022-09-26T06:55:45.903Z,10.79
2022-09-26T06:58:12.456Z,10.82
2022-09-26T07:00:40.411Z,10.87
2022-09-26T07:03:08.153Z,10.91
2022-09-26T07:05:35.010Z,10.98
2022-09-26T07:08:02.368Z,11.00
2022-09-26T07:10:34.611Z,11.03
2022-09-26T07:13:03.970Z,11.08
2022-09-26T07:15:32.962Z,11.12
2022-09-26T07:18:02.553Z,11.17
2022-09-26T07:20:35.653Z,11.25
2022-09-26T07:23:02.838Z,11.31
2022-09-26T07:25:31.594Z,11.36
2022-09-26T07:27:58.823Z,11.38
2022-09-26T07:30:25.751Z,11.38
2022-09-26T07:32:52.104Z,11.38
2022-09-26T07:35:18.513Z,11.38
2022-09-26T07:37:45.057Z,11.36
2022-09-26T07:40:11.989Z,11.34
2022-09-26T07:42:38.752Z,11.33
2022-09-26T07:45:28.887Z,11.31
2022-09-26T07:48:11.089Z,11.32
2022-09-26T07:50:37.983Z,11.33
2022-09-26T07:53:04.382Z,11.33
2022-09-26T07:55:30.746Z,11.34
2022-09-26T07:57:57.888Z,11.37
2022-09-26T08:00:26.284Z,11.39
2022-09-26T08:02:52.837Z,11.42
2022-09-26T08:05:20.172Z,11.46
2022-09-26T08:07:48.588Z,11.52
2022-09-26T08:10:23.965Z,11.55
2022-09-26T08:12:50.687Z,11.57
2022-09-26T08:15:17.245Z,11.59
2022-09-26T08:17:43.803Z,11.65
2022-09-26T08:20:10.852Z,11.71
2022-09-26T08:22:37.632Z,11.74
2022-09-26T08:25:06.773Z,11.76
2022-09-26T08:27:34.293Z,11.81
2022-09-26T08:30:02.659Z,11.86
2022-09-26T08:32:31.034Z,11.92
2022-09-26T08:34:57.457Z,11.99
2022-09-26T08:37:31.055Z,12.03
2022-09-26T08:39:57.764Z,12.04
2022-09-26T08:42:38.792Z,11.96
2022-09-26T08:45:55.805Z,11.95
2022-09-26T08:48:44.325Z,11.87
2022-09-26T08:51:29.861Z,11.86
2022-09-26T08:54:09.364Z,11.86
2022-09-26T08:56:43.180Z,11.87
2022-09-26T08:59:23.163Z,11.87
2022-09-26T09:01:52.777Z,11.90
2022-09-26T09:04:41.126Z,11.88
2022-09-26T09:07:20.201Z,11.93
2022-09-26T09:09:46.731Z,11.92
2022-09-26T09:12:44.780Z,11.88
2022-09-26T09:15:25.688Z,11.88
2022-09-26T09:18:13.585Z,11.84
2022-09-26T09:21:03.491Z,11.80
2022-09-26T09:23:32.718Z,11.77
2022-09-26T09:29:02.729Z,11.77
2022-09-26T09:31:35.213Z,11.76
2022-09-26T09:34:11.314Z,11.72
2022-09-26T09:36:42.988Z,11.71
2022-09-26T09:39:16.814Z,11.79
2022-09-26T09:41:51.457Z,11.90
2022-09-26T09:44:26.500Z,12.00
2022-09-26T09:46:52.968Z,12.08
2022-09-26T09:49:27.347Z,12.11
2022-09-26T09:52:19.976Z,12.06
2022-09-26T09:54:55.558Z,12.14
2022-09-26T09:57:43.376Z,12.29
2022-09-26T10:00:17.449Z,12.35
2022-09-26T10:03:19.097Z,12.35
2022-09-26T10:05:48.259Z,12.30
2022-09-26T10:08:22.539Z,12.34
2022-09-26T10:11:11.496Z,12.35
2022-09-26T10:13:42.136Z,12.38
2022-09-26T10:16:11.761Z,12.45
2022-09-26T10:19:04.021Z,12.50
2022-09-26T10:21:37.226Z,12.50
2022-09-26T10:24:04.733Z,12.61
2022-09-26T10:26:36.384Z,12.61
2022-09-26T10:29:21.804Z,12.61
2022-09-26T10:31:55.557Z,12.60
2022-09-26T10:34:27.493Z,12.55
2022-09-26T10:36:54.106Z,12.52
2022-09-26T10:39:44.149Z,12.46
2022-09-26T10:42:20.042Z,12.37
2022-09-26T10:44:48.505Z,12.30
2022-09-26T10:47:22.839Z,12.28
2022-09-26T10:49:52.948Z,12.26
2022-09-26T10:52:30.027Z,12.23
2022-09-26T10:55:12.356Z,12.22
2022-09-26T10:58:01.206Z,12.24
2022-09-26T11:00:33.738Z,12.23
2022-09-26T11:03:00.592Z,12.23
2022-09-26T11:05:45.684Z,12.25
2022-09-26T11:08:14.037Z,12.18
2022-09-26T11:10:41.965Z,12.20
2022-09-26T11:13:19.571Z,12.22
2022-09-26T11:15:52.581Z,12.19
2022-09-26T11:18:39.561Z,12.19
2022-09-26T11:21:47.961Z,12.20
2022-09-26T11:24:54.874Z,12.25
2022-09-26T11:27:31.693Z,12.27
2022-09-26T11:30:09.933Z,12.24
2022-09-26T11:32:47.283Z,12.24
2022-09-26T11:35:17.511Z,12.23
2022-09-26T11:38:05.433Z,12.20
2022-09-26T11:41:00.028Z,12.28
2022-09-26T11:43:57.924Z,12.29
2022-09-26T11:46:47.349Z,12.31
2022-09-26T11:49:30.200Z,12.32
2022-09-26T11:52:21.812Z,12.30
2022-09-26T11:55:08.082Z,12.27
2022-09-26T11:57:45.230Z,12.23
2022-09-26T12:00:16.016Z,12.26
2022-09-26T12:02:48.928Z,12.26
2022-09-26T12:05:29.109Z,12.23
2022-09-26T12:07:58.925Z,12.22
2022-09-26T12:10:41.673Z,12.21
2022-09-26T12:13:34.407Z,12.21
2022-09-26T12:16:09.478Z,12.22
2022-09-26T12:18:56.573Z,12.23
2022-09-26T12:21:37.224Z,12.28
2022-09-26T12:24:23.887Z,12.31
2022-09-26T12:26:58.743Z,12.33
2022-09-26T12:30:02.416Z,12.28
2022-09-26T12:33:00.513Z,12.29
2022-09-26T12:35:50.720Z,12.32
2022-09-26T12:38:40.200Z,12.41
2022-09-26T12:41:14.180Z,12.40
2022-09-26T12:44:05.350Z,12.45
2022-09-26T12:47:21.157Z,12.50
2022-09-26T12:49:50.585Z,12.45
2022-09-26T12:52:38.370Z,12.44
2022-09-26T12:55:27.951Z,12.48
2022-09-26T12:58:00.977Z,12.48
2022-09-26T13:00:36.241Z,12.46
2022-09-26T13:03:21.481Z,12.52
2022-09-26T13:06:08.853Z,12.58
2022-09-26T13:08:53.297Z,12.56
2022-09-26T13:11:45.786Z,12.53
2022-09-26T13:14:37.677Z,12.50
2022-09-26T13:17:28.303Z,12.48
2022-09-26T13:20:32.258Z,12.41
2022-09-26T13:23:07.923Z,12.43
2022-09-26T13:25:50.025Z,12.44
2022-09-26T13:28:24.093Z,12.48
2022-09-26T13:30:57.928Z,12.53
2022-09-26T13:33:43.756Z,12.44
2022-09-26T13:36:12.490Z,12.39
2022-09-26T13:39:09.597Z,12.41
2022-09-26T13:41:54.994Z,12.30
2022-09-26T13:44:36.279Z,12.25
2022-09-26T13:47:21.344Z,12.23
2022-09-26T13:49:51.181Z,12.33
2022-09-26T13:52:48.033Z,12.43
2022-09-26T13:55:20.024Z,12.62
2022-09-26T13:58:08.282Z,12.76
2022-09-26T14:00:40.898Z,12.83
2022-09-26T14:03:10.303Z,12.94
2022-09-26T14:05:49.887Z,13.08
2022-09-26T14:08:44.302Z,13.50
2022-09-26T14:11:45.214Z,13.84
2022-09-26T14:14:23.972Z,13.89
2022-09-26T14:16:56.693Z,13.84
2022-09-26T14:19:36.166Z,13.77
2022-09-26T14:22:25.576Z,13.72
2022-09-26T14:24:52.346Z,13.72
2022-09-26T14:27:18.889Z,13.59
2022-09-26T14:30:29.146Z,13.46
2022-09-26T14:33:02.974Z,13.37
2022-09-26T14:35:34.805Z,13.33
2022-09-26T14:38:20.074Z,13.28
2022-09-26T14:40:58.484Z,13.25
2022-09-26T14:43:28.830Z,13.22
2022-09-26T14:46:05.153Z,13.20
2022-09-26T14:48:37.417Z,13.15
2022-09-26T14:51:10.353Z,13.06
2022-09-26T14:53:43.978Z,13.05
2022-09-26T14:56:16.360Z,12.99
2022-09-26T14:58:48.237Z,12.97
2022-09-26T15:01:37.277Z,12.95
2022-09-26T15:04:15.026Z,12.91
2022-09-26T15:06:46.327Z,12.84
2022-09-26T15:09:21.653Z,12.75
2022-09-26T15:11:55.089Z,12.69
2022-09-26T15:14:31.358Z,12.64
2022-09-26T15:17:01.207Z,12.63
2022-09-26T15:19:34.715Z,12.63
2022-09-26T15:22:06.127Z,12.65
2022-09-26T15:24:35.771Z,12.68
2022-09-26T15:27:29.164Z,12.71
2022-09-26T15:30:06.989Z,12.70
2022-09-26T15:32:33.729Z,12.62
2022-09-26T15:35:02.170Z,12.60
2022-09-26T15:37:32.002Z,12.65
2022-09-26T15:40:19.332Z,12.73
2022-09-26T15:42:58.227Z,12.75
2022-09-26T15:45:30.355Z,12.73
2022-09-26T15:48:05.492Z,12.75
2022-09-26T15:50:34.845Z,12.76
2022-09-26T15:53:20.100Z,12.78
2022-09-26T15:55:51.492Z,12.80
2022-09-26T15:58:40.088Z,12.88
2022-09-26T16:01:14.280Z,12.95
2022-09-26T16:03:45.680Z,13.03
2022-09-26T16:06:25.577Z,13.06
2022-09-26T16:09:00.959Z,13.11
2022-09-26T16:11:28.453Z,13.14
2022-09-26T16:13:56.543Z,13.19
2022-09-26T16:16:32.236Z,13.25
2022-09-26T16:19:03.816Z,13.30
2022-09-26T16:21:33.982Z,13.34
2022-09-26T16:24:22.349Z,13.34
2022-09-26T16:26:50.294Z,13.35
2022-09-26T16:29:31.332Z,13.36
2022-09-26T16:31:59.390Z,13.40
2022-09-26T16:34:26.128Z,13.42
2022-09-26T16:36:53.387Z,13.38
2022-09-26T16:39:23.205Z,13.33
2022-09-26T16:42:01.706Z,13.30
2022-09-26T16:44:41.015Z,13.28
2022-09-26T16:47:49.223Z,13.19
2022-09-26T16:50:28.714Z,13.20
2022-09-26T16:52:55.966Z,13.18
2022-09-26T16:55:24.396Z,13.12
2022-09-26T16:57:54.917Z,13.05
2022-09-26T17:00:42.798Z,12.97
2022-09-26T17:03:23.103Z,12.88
2022-09-26T17:05:51.402Z,12.76
2022-09-26T17:08:19.518Z,12.71
2022-09-26T17:10:46.442Z,12.65
2022-09-26T17:13:23.761Z,12.60
2022-09-26T17:15:54.605Z,12.58
2022-09-26T17:18:28.834Z,12.56
2022-09-26T17:20:56.759Z,12.46
2022-09-26T17:23:39.360Z,12.41
2022-09-26T17:26:07.626Z,12.38
2022-09-26T17:28:40.214Z,12.32
2022-09-26T17:31:10.002Z,12.27
2022-09-26T17:33:40.437Z,12.23
2022-09-26T17:36:10.669Z,12.18
2022-09-26T17:38:41.068Z,12.12
2022-09-26T17:41:12.375Z,12.10
2022-09-26T17:43:39.792Z,12.08
2022-09-26T17:46:11.465Z,12.06
2022-09-26T17:48:41.665Z,12.01
2022-09-26T17:51:13.521Z,11.97
2022-09-26T17:53:49.541Z,11.93
2022-09-26T17:56:16.678Z,11.88
2022-09-26T17:58:44.697Z,11.82
2022-09-26T18:01:22.116Z,11.73
2022-09-26T18:03:51.750Z,11.69
2022-09-26T18:06:21.803Z,11.69
2022-09-26T18:08:48.727Z,11.65
2022-09-26T18:11:17.809Z,11.67
2022-09-26T18:13:55.272Z,11.67
2022-09-26T18:16:22.854Z,11.67
2022-09-26T18:18:50.069Z,11.68
2022-09-26T18:21:18.693Z,11.66
2022-09-26T18:23:52.056Z,11.63
2022-09-26T18:26:38.016Z,11.63
2022-09-26T18:29:08.044Z,11.63
2022-09-26T18:31:39.455Z,11.64
2022-09-26T18:34:11.286Z,11.62
2022-09-26T18:36:37.664Z,11.62
2022-09-26T18:39:04.271Z,11.61
2022-09-26T18:41:30.645Z,11.58
2022-09-26T18:44:00.473Z,11.56
2022-09-26T18:46:29.135Z,11.55
2022-09-26T18:49:00.159Z,11.54
2022-09-26T18:51:27.216Z,11.49
2022-09-26T18:53:53.801Z,11.48
2022-09-26T18:56:38.743Z,11.48
2022-09-26T18:59:05.289Z,11.45
2022-09-26T19:01:35.000Z,11.44
2022-09-26T19:04:05.708Z,11.42
2022-09-26T19:06:35.800Z,11.38
2022-09-26T19:09:04.936Z,11.39
2022-09-26T19:11:34.457Z,11.40
2022-09-26T19:14:23.196Z,11.37
2022-09-26T19:16:50.325Z,11.31
2022-09-26T19:19:17.899Z,11.28
2022-09-26T19:21:48.337Z,11.25
2022-09-26T19:24:26.852Z,11.25
2022-09-26T19:26:56.973Z,11.24
2022-09-26T19:29:40.466Z,11.21
2022-09-26T19:32:16.419Z,11.21
2022-09-26T19:34:46.822Z,11.20
2022-09-26T19:37:13.992Z,11.18
2022-09-26T19:39:40.508Z,11.16
2022-09-26T19:42:06.860Z,11.14
2022-09-26T19:44:34.150Z,11.11
2022-09-26T19:47:02.004Z,11.07
2022-09-26T19:49:29.907Z,11.07
2022-09-26T19:51:56.585Z,11.03
2022-09-26T19:54:23.229Z,11.00
2022-09-26T19:56:49.633Z,10.98
2022-09-26T19:59:17.209Z,10.96
2022-09-26T20:01:46.438Z,10.94
2022-09-26T20:04:15.567Z,10.88
2022-09-26T20:06:41.999Z,10.86
2022-09-26T20:09:17.679Z,10.82
2022-09-26T20:11:44.549Z,10.81
2022-09-26T20:14:26.141Z,10.77
2022-09-26T20:16:55.429Z,10.75
2022-09-26T20:19:28.527Z,10.67
2022-09-26T20:21:59.748Z,10.63
2022-09-26T20:24:27.709Z,10.60
2022-09-26T20:26:54.943Z,10.56
2022-09-26T20:29:21.285Z,10.52
2022-09-26T20:31:47.699Z,10.50
2022-09-26T20:34:15.877Z,10.44
2022-09-26T20:36:47.491Z,10.45
2022-09-26T20:39:22.861Z,10.44
2022-09-26T20:41:50.474Z,10.44
2022-09-26T20:44:21.202Z,10.45
2022-09-26T20:46:50.225Z,10.42
2022-09-26T20:49:23.631Z,10.39
2022-09-26T20:51:51.246Z,10.37
2022-09-26T20:54:25.226Z,10.36
2022-09-26T20:56:53.298Z,10.34
2022-09-26T20:59:19.862Z,10.36
2022-09-26T21:01:46.414Z,10.33
2022-09-26T21:04:15.820Z,10.32
2022-09-26T21:06:42.674Z,10.31
2022-09-26T21:09:18.549Z,10.29
2022-09-26T21:11:48.065Z,10.28
2022-09-26T21:14:15.762Z,10.27
2022-09-26T21:16:52.161Z,10.27
2022-09-26T21:19:24.882Z,10.29
2022-09-26T21:21:51.994Z,10.26
2022-09-26T21:24:25.299Z,10.23
2022-09-26T21:26:52.015Z,10.18
2022-09-26T21:29:18.605Z,10.20
2022-09-26T21:31:49.182Z,10.17
2022-09-26T21:34:22.266Z,10.15
2022-09-26T21:36:50.557Z,10.14
2022-09-26T21:39:18.971Z,10.12
2022-09-26T21:41:49.347Z,10.08
2022-09-26T21:44:30.918Z,10.11
2022-09-26T21:46:57.573Z,10.10
2022-09-26T21:49:24.883Z,10.08
2022-09-26T21:51:57.561Z,10.06
2022-09-26T21:54:34.467Z,10.08
2022-09-26T21:57:07.643Z,10.07
2022-09-26T21:59:37.808Z,10.05
2022-09-26T22:02:04.361Z,10.02
2022-09-26T22:04:30.732Z,10.01
2022-09-26T22:06:57.549Z,10.03
2022-09-26T22:09:23.933Z,10.03
2022-09-26T22:11:50.334Z,10.01
2022-09-26T22:14:16.699Z,9.99
2022-09-26T22:16:43.214Z,9.99
2022-09-26T22:19:10.300Z,9.97
2022-09-26T22:21:36.761Z,9.97
2022-09-26T22:24:03.301Z,9.96
2022-09-26T22:26:29.708Z,9.94
2022-09-26T22:28:56.250Z,9.95
2022-09-26T22:31:22.689Z,9.94
2022-09-26T22:33:49.252Z,9.95
2022-09-26T22:36:16.260Z,9.92
2022-09-26T22:38:42.780Z,9.93
2022-09-26T22:41:09.225Z,9.93
2022-09-26T22:43:36.139Z,9.94
2022-09-26T22:46:03.699Z,9.94
2022-09-26T22:48:31.768Z,9.91
2022-09-26T22:50:58.144Z,9.92
2022-09-26T22:53:24.490Z,9.90
2022-09-26T22:55:55.537Z,9.86
2022-09-26T22:58:23.699Z,9.84
2022-09-26T23:00:50.245Z,9.79
2022-09-26T23:03:17.359Z,9.78
2022-09-26T23:05:47.310Z,9.78
2022-09-26T23:08:13.906Z,9.76
2022-09-26T23:10:48.143Z,9.71
2022-09-26T23:13:14.476Z,9.70
2022-09-26T23:15:40.870Z,9.67
2022-09-26T23:18:07.457Z,9.67
2022-09-26T23:20:33.872Z,9.61
2022-09-26T23:23:00.539Z,9.59
2022-09-26T23:25:26.898Z,9.58
2022-09-26T23:27:53.355Z,9.56
2022-09-26T23:30:19.730Z,9.54
2022-09-26T23:32:46.198Z,9.52
2022-09-26T23:35:12.545Z,9.49
2022-09-26T23:37:39.095Z,9.47
2022-09-26T23:40:05.967Z,9.43
2022-09-26T23:42:32.299Z,9.43
2022-09-26T23:44:58.655Z,9.41
2022-09-26T23:47:25.401Z,9.39
2022-09-26T23:49:51.883Z,9.34
2022-09-26T23:52:18.285Z,9.33
2022-09-26T23:54:44.623Z,9.29
2022-09-26T23:57:11.000Z,9.24
2022-09-26T23:59:37.363Z,9.22
